^^
Meteo Knjazevac Station Historical Data
Daily Summary for March 9, 2021 Units:  Both    English   Metric
Daily Weekly Monthly Yearly Custom
  High: Low: Average:
Temperature: 59 °F /  15 °C 54.1 °F /  12.3 °C 56.2 °F /  13.4 °C
Dew Point: 48.1 °F /  8.9 °C 47.6 °F /  8.7 °C 47.9 °F /  8.8 °C
Humidity: 79% 67% 74%
Wind Speed: 2mph /  3.2km/h - 0.6mph /  1km/h
Wind Gust: 5mph /  8km/h - -
Wind- - SW
Pressure: 30.21 in /  1022.9 hPa 30.20 in /  1022.6 hPa -
Precipitation: 0.00 in /  0 mm    
Historical Graphs
 
 
Tabular Data for March 9, 2021
Time Temperature Dew Point Pressure Wind Wind Speed Wind Gust Humidity Rainfall Rate (Hourly) solar Conditions
00:00 59 °F /  15 °C 48.1 °F /  8.9 °C 30.21in /  1022.9hPa West 2mph /  3.2km/h 3mph /  4.8km/h 67% 0.00in /  0mm 0 W/m2
00:10 59 °F /  15 °C 48.1 °F /  8.9 °C 30.21in /  1022.9hPa WNW 1mph /  1.6km/h 2mph /  3.2km/h 67% 0.00in /  0mm 0 W/m2
00:20 58.6 °F /  14.8 °C 48.1 °F /  8.9 °C 30.21in /  1022.9hPa Calm   3mph /  4.8km/h 68% 0.00in /  0mm 0 W/m2
00:30 58.5 °F /  14.7 °C 47.9 °F /  8.8 °C 30.21in /  1022.9hPa Calm   2mph /  3.2km/h 68% 0.00in /  0mm 0 W/m2
00:40 58.1 °F /  14.5 °C 48 °F /  8.9 °C 30.21in /  1022.9hPa SSE 1mph /  1.6km/h 3mph /  4.8km/h 69% 0.00in /  0mm 0 W/m2
00:50 57.7 °F /  14.3 °C 48 °F /  8.9 °C 30.21in /  1022.9hPa Calm   4mph /  6.4km/h 70% 0.00in /  0mm 0 W/m2
01:00 57.4 °F /  14.1 °C 47.7 °F /  8.7 °C 30.21in /  1022.9hPa SE 1mph /  1.6km/h 5mph /  8km/h 70% 0.00in /  0mm 0 W/m2
01:10 57 °F /  13.9 °C 48.1 °F /  8.9 °C 30.21in /  1022.9hPa SSW 1mph /  1.6km/h 3mph /  4.8km/h 72% 0.00in /  0mm 0 W/m2
01:20 56.8 °F /  13.8 °C 47.9 °F /  8.8 °C 30.20in /  1022.6hPa Calm   5mph /  8km/h 72% 0.00in /  0mm 0 W/m2
01:30 56.7 °F /  13.7 °C 48.1 °F /  8.9 °C 30.20in /  1022.6hPa SE 2mph /  3.2km/h 3mph /  4.8km/h 73% 0.00in /  0mm 0 W/m2
01:40 56.5 °F /  13.6 °C 47.9 °F /  8.8 °C 30.20in /  1022.6hPa South 1mph /  1.6km/h 4mph /  6.4km/h 73% 0.00in /  0mm 0 W/m2
01:50 56.3 °F /  13.5 °C 47.8 °F /  8.8 °C 30.20in /  1022.6hPa NNW 1mph /  1.6km/h 3mph /  4.8km/h 73% 0.00in /  0mm 0 W/m2
02:00 56.3 °F /  13.5 °C 48.1 °F /  8.9 °C 30.20in /  1022.6hPa Calm   2mph /  3.2km/h 74% 0.00in /  0mm 0 W/m2
02:10 56.1 °F /  13.4 °C 47.9 °F /  8.8 °C 30.20in /  1022.6hPa Calm   2mph /  3.2km/h 74% 0.00in /  0mm 0 W/m2
02:20 55.9 °F /  13.3 °C 47.8 °F /  8.8 °C 30.20in /  1022.6hPa Calm   2mph /  3.2km/h 74% 0.00in /  0mm 0 W/m2
02:30 55.8 °F /  13.2 °C 47.6 °F /  8.7 °C 30.20in /  1022.6hPa Calm   2mph /  3.2km/h 74% 0.00in /  0mm 0 W/m2
02:40 55.8 °F /  13.2 °C 48 °F /  8.9 °C 30.20in /  1022.6hPa West 1mph /  1.6km/h 2mph /  3.2km/h 75% 0.00in /  0mm 0 W/m2
02:50 55.8 °F /  13.2 °C 48 °F /  8.9 °C 30.20in /  1022.6hPa Calm   1mph /  1.6km/h 75% 0.00in /  0mm 0 W/m2
03:00 55.6 °F /  13.1 °C 47.8 °F /  8.8 °C 30.20in /  1022.6hPa SW 2mph /  3.2km/h 4mph /  6.4km/h 75% 0.00in /  0mm 0 W/m2
03:10 55.4 °F /  13 °C 48 °F /  8.9 °C 30.20in /  1022.6hPa Calm   3mph /  4.8km/h 76% 0.00in /  0mm 0 W/m2
03:20 55.2 °F /  12.9 °C 48.1 °F /  8.9 °C 30.20in /  1022.6hPa Calm   3mph /  4.8km/h 77% 0.00in /  0mm 0 W/m2
03:30 55 °F /  12.8 °C 48 °F /  8.9 °C 30.20in /  1022.6hPa Calm   2mph /  3.2km/h 77% 0.00in /  0mm 0 W/m2
03:40 55 °F /  12.8 °C 48 °F /  8.9 °C 30.20in /  1022.6hPa North 1mph /  1.6km/h 3mph /  4.8km/h 77% 0.00in /  0mm 0 W/m2
03:50 54.7 °F /  12.6 °C 48 °F /  8.9 °C 30.20in /  1022.6hPa South 1mph /  1.6km/h 3mph /  4.8km/h 78% 0.00in /  0mm 0 W/m2
04:00 54.7 °F /  12.6 °C 48 °F /  8.9 °C 30.20in /  1022.6hPa North 1mph /  1.6km/h 4mph /  6.4km/h 78% 0.00in /  0mm 0 W/m2
04:10 54.5 °F /  12.5 °C 47.8 °F /  8.8 °C 30.20in /  1022.6hPa Calm   5mph /  8km/h 78% 0.00in /  0mm 0 W/m2
04:20 54.3 °F /  12.4 °C 47.6 °F /  8.7 °C 30.20in /  1022.6hPa Calm   2mph /  3.2km/h 78% 0.00in /  0mm 0 W/m2
04:30 54.1 °F /  12.3 °C 47.8 °F /  8.8 °C 30.20in /  1022.6hPa NW 1mph /  1.6km/h 3mph /  4.8km/h 79% 0.00in /  0mm 0 W/m2
04:40 54.1 °F /  12.3 °C 47.8 °F /  8.8 °C 30.20in /  1022.6hPa Calm   2mph /  3.2km/h 79% 0.00in /  0mm 0 W/m2
Knjazevac, Serbia
Compliments of Weather Underground - 2 mb